sensor_id;sensor_type;location;lat;lon;timestamp;P1;durP1;ratioP1;P2;durP2;ratioP2
54247;SDS011;40161;39.768;2.722;2022-10-31T00:01:11;13.55;;;6.57;;
54247;SDS011;40161;39.768;2.722;2022-10-31T00:03:39;17.23;;;6.50;;
54247;SDS011;40161;39.768;2.722;2022-10-31T00:06:41;11.60;;;6.47;;
54247;SDS011;40161;39.768;2.722;2022-10-31T00:09:09;12.02;;;6.68;;
54247;SDS011;40161;39.768;2.722;2022-10-31T00:11:35;15.15;;;6.72;;
54247;SDS011;40161;39.768;2.722;2022-10-31T00:14:01;13.90;;;7.03;;
54247;SDS011;40161;39.768;2.722;2022-10-31T00:16:27;18.50;;;7.20;;
54247;SDS011;40161;39.768;2.722;2022-10-31T00:18:54;13.20;;;6.30;;
54247;SDS011;40161;39.768;2.722;2022-10-31T00:21:24;12.80;;;6.35;;
54247;SDS011;40161;39.768;2.722;2022-10-31T00:23:51;11.93;;;6.93;;
54247;SDS011;40161;39.768;2.722;2022-10-31T00:26:17;12.10;;;7.20;;
54247;SDS011;40161;39.768;2.722;2022-10-31T00:28:43;12.05;;;6.80;;
54247;SDS011;40161;39.768;2.722;2022-10-31T00:31:09;14.88;;;6.78;;
54247;SDS011;40161;39.768;2.722;2022-10-31T00:33:36;17.33;;;6.93;;
54247;SDS011;40161;39.768;2.722;2022-10-31T00:36:03;13.30;;;7.18;;
54247;SDS011;40161;39.768;2.722;2022-10-31T00:38:30;13.15;;;6.80;;
54247;SDS011;40161;39.768;2.722;2022-10-31T00:40:55;12.45;;;7.22;;
54247;SDS011;40161;39.768;2.722;2022-10-31T00:43:21;12.90;;;6.03;;
54247;SDS011;40161;39.768;2.722;2022-10-31T00:45:46;13.73;;;6.55;;
54247;SDS011;40161;39.768;2.722;2022-10-31T00:48:12;16.27;;;6.90;;
54247;SDS011;40161;39.768;2.722;2022-10-31T00:50:38;11.38;;;6.28;;
54247;SDS011;40161;39.768;2.722;2022-10-31T00:53:04;15.82;;;6.90;;
54247;SDS011;40161;39.768;2.722;2022-10-31T00:55:30;14.25;;;7.70;;
54247;SDS011;40161;39.768;2.722;2022-10-31T00:57:55;14.00;;;6.82;;
54247;SDS011;40161;39.768;2.722;2022-10-31T01:00:21;11.07;;;6.68;;
54247;SDS011;40161;39.768;2.722;2022-10-31T01:02:47;11.32;;;6.40;;
54247;SDS011;40161;39.768;2.722;2022-10-31T01:05:12;11.88;;;5.60;;
54247;SDS011;40161;39.768;2.722;2022-10-31T01:07:39;12.23;;;6.18;;
54247;SDS011;40161;39.768;2.722;2022-10-31T01:10:05;10.60;;;6.10;;
54247;SDS011;40161;39.768;2.722;2022-10-31T01:12:38;12.48;;;6.40;;
54247;SDS011;40161;39.768;2.722;2022-10-31T01:15:05;11.25;;;6.63;;
54247;SDS011;40161;39.768;2.722;2022-10-31T01:17:32;11.93;;;6.85;;
54247;SDS011;40161;39.768;2.722;2022-10-31T01:19:57;10.90;;;6.20;;
54247;SDS011;40161;39.768;2.722;2022-10-31T01:22:23;11.50;;;6.13;;
54247;SDS011;40161;39.768;2.722;2022-10-31T01:24:48;11.23;;;5.65;;
54247;SDS011;40161;39.768;2.722;2022-10-31T01:27:14;12.57;;;6.53;;
54247;SDS011;40161;39.768;2.722;2022-10-31T01:29:39;12.13;;;6.53;;
54247;SDS011;40161;39.768;2.722;2022-10-31T01:32:05;12.38;;;6.40;;
54247;SDS011;40161;39.768;2.722;2022-10-31T01:34:30;16.20;;;6.47;;
54247;SDS011;40161;39.768;2.722;2022-10-31T01:36:56;10.85;;;6.45;;
54247;SDS011;40161;39.768;2.722;2022-10-31T01:39:22;10.13;;;6.07;;
54247;SDS011;40161;39.768;2.722;2022-10-31T01:41:49;14.60;;;6.35;;
54247;SDS011;40161;39.768;2.722;2022-10-31T01:49:23;10.80;;;6.28;;
54247;SDS011;40161;39.768;2.722;2022-10-31T01:51:56;10.98;;;6.75;;
54247;SDS011;40161;39.768;2.722;2022-10-31T01:54:45;11.75;;;6.72;;
54247;SDS011;40161;39.768;2.722;2022-10-31T01:57:24;11.82;;;6.22;;
54247;SDS011;40161;39.768;2.722;2022-10-31T01:59:52;10.10;;;5.80;;
54247;SDS011;40161;39.768;2.722;2022-10-31T02:02:22;12.57;;;6.45;;
54247;SDS011;40161;39.768;2.722;2022-10-31T02:04:48;12.13;;;6.05;;
54247;SDS011;40161;39.768;2.722;2022-10-31T02:07:15;16.33;;;6.75;;
54247;SDS011;40161;39.768;2.722;2022-10-31T02:09:45;12.38;;;6.13;;
54247;SDS011;40161;39.768;2.722;2022-10-31T02:12:12;13.38;;;6.40;;
54247;SDS011;40161;39.768;2.722;2022-10-31T02:14:39;13.23;;;6.45;;
54247;SDS011;40161;39.768;2.722;2022-10-31T02:17:05;11.40;;;6.57;;
54247;SDS011;40161;39.768;2.722;2022-10-31T02:19:35;11.10;;;6.72;;
54247;SDS011;40161;39.768;2.722;2022-10-31T02:30:28;13.00;;;6.43;;
54247;SDS011;40161;39.768;2.722;2022-10-31T02:35:58;10.35;;;7.03;;
54247;SDS011;40161;39.768;2.722;2022-10-31T02:47:02;9.80;;;6.20;;
54247;SDS011;40161;39.768;2.722;2022-10-31T02:49:32;10.38;;;6.55;;
54247;SDS011;40161;39.768;2.722;2022-10-31T02:51:59;11.65;;;6.20;;
54247;SDS011;40161;39.768;2.722;2022-10-31T02:54:25;13.18;;;6.70;;
54247;SDS011;40161;39.768;2.722;2022-10-31T02:57:02;11.93;;;6.57;;
54247;SDS011;40161;39.768;2.722;2022-10-31T02:59:31;11.38;;;6.57;;
54247;SDS011;40161;39.768;2.722;2022-10-31T03:10:20;14.25;;;6.65;;
54247;SDS011;40161;39.768;2.722;2022-10-31T03:12:49;13.57;;;6.65;;
54247;SDS011;40161;39.768;2.722;2022-10-31T03:15:25;12.88;;;7.05;;
54247;SDS011;40161;39.768;2.722;2022-10-31T03:18:00;11.38;;;6.72;;
54247;SDS011;40161;39.768;2.722;2022-10-31T03:20:38;11.65;;;6.30;;
54247;SDS011;40161;39.768;2.722;2022-10-31T03:23:07;11.48;;;6.40;;
54247;SDS011;40161;39.768;2.722;2022-10-31T03:25:36;15.57;;;6.40;;
54247;SDS011;40161;39.768;2.722;2022-10-31T03:28:04;14.18;;;6.68;;
54247;SDS011;40161;39.768;2.722;2022-10-31T03:30:32;10.90;;;6.07;;
54247;SDS011;40161;39.768;2.722;2022-10-31T03:33:01;11.52;;;6.38;;
54247;SDS011;40161;39.768;2.722;2022-10-31T03:35:30;13.57;;;6.45;;
54247;SDS011;40161;39.768;2.722;2022-10-31T03:37:59;13.18;;;6.35;;
54247;SDS011;40161;39.768;2.722;2022-10-31T03:40:27;13.43;;;7.13;;
54247;SDS011;40161;39.768;2.722;2022-10-31T03:42:57;11.68;;;6.57;;
54247;SDS011;40161;39.768;2.722;2022-10-31T03:45:29;10.88;;;6.82;;
54247;SDS011;40161;39.768;2.722;2022-10-31T03:47:56;11.48;;;6.40;;
54247;SDS011;40161;39.768;2.722;2022-10-31T03:50:24;11.93;;;6.55;;
54247;SDS011;40161;39.768;2.722;2022-10-31T03:53:13;14.35;;;6.55;;
54247;SDS011;40161;39.768;2.722;2022-10-31T03:55:49;12.27;;;6.43;;
54247;SDS011;40161;39.768;2.722;2022-10-31T03:58:36;11.30;;;6.50;;
54247;SDS011;40161;39.768;2.722;2022-10-31T04:01:08;10.13;;;6.30;;
54247;SDS011;40161;39.768;2.722;2022-10-31T04:03:37;9.23;;;6.22;;
54247;SDS011;40161;39.768;2.722;2022-10-31T04:06:07;13.05;;;6.00;;
54247;SDS011;40161;39.768;2.722;2022-10-31T04:08:38;12.45;;;6.30;;
54247;SDS011;40161;39.768;2.722;2022-10-31T04:11:09;12.27;;;6.35;;
54247;SDS011;40161;39.768;2.722;2022-10-31T04:13:37;10.23;;;6.15;;
54247;SDS011;40161;39.768;2.722;2022-10-31T04:16:06;14.43;;;6.50;;
54247;SDS011;40161;39.768;2.722;2022-10-31T04:18:33;15.70;;;6.43;;
54247;SDS011;40161;39.768;2.722;2022-10-31T04:21:00;12.27;;;6.47;;
54247;SDS011;40161;39.768;2.722;2022-10-31T04:23:28;11.43;;;6.18;;
54247;SDS011;40161;39.768;2.722;2022-10-31T04:25:54;11.10;;;6.25;;
54247;SDS011;40161;39.768;2.722;2022-10-31T04:28:19;13.18;;;6.43;;
54247;SDS011;40161;39.768;2.722;2022-10-31T04:30:45;11.35;;;6.00;;
54247;SDS011;40161;39.768;2.722;2022-10-31T04:33:10;11.63;;;6.15;;
54247;SDS011;40161;39.768;2.722;2022-10-31T04:35:36;13.15;;;6.05;;
54247;SDS011;40161;39.768;2.722;2022-10-31T04:38:01;13.20;;;6.63;;
54247;SDS011;40161;39.768;2.722;2022-10-31T04:40:27;11.38;;;6.28;;
54247;SDS011;40161;39.768;2.722;2022-10-31T04:42:53;10.68;;;5.65;;
54247;SDS011;40161;39.768;2.722;2022-10-31T04:45:18;11.80;;;6.40;;
54247;SDS011;40161;39.768;2.722;2022-10-31T04:47:43;9.38;;;6.00;;
54247;SDS011;40161;39.768;2.722;2022-10-31T04:50:09;8.88;;;6.10;;
54247;SDS011;40161;39.768;2.722;2022-10-31T04:52:38;11.57;;;6.50;;
54247;SDS011;40161;39.768;2.722;2022-10-31T04:55:07;12.57;;;7.10;;
54247;SDS011;40161;39.768;2.722;2022-10-31T04:57:44;13.18;;;6.75;;
54247;SDS011;40161;39.768;2.722;2022-10-31T05:00:11;12.77;;;7.18;;
54247;SDS011;40161;39.768;2.722;2022-10-31T05:02:49;12.05;;;6.50;;
54247;SDS011;40161;39.768;2.722;2022-10-31T05:05:16;15.10;;;6.18;;
54247;SDS011;40161;39.768;2.722;2022-10-31T05:07:45;10.23;;;5.95;;
54247;SDS011;40161;39.768;2.722;2022-10-31T05:10:13;8.75;;;6.25;;
54247;SDS011;40161;39.768;2.722;2022-10-31T05:12:47;10.82;;;6.55;;
54247;SDS011;40161;39.768;2.722;2022-10-31T05:15:18;11.20;;;6.90;;
54247;SDS011;40161;39.768;2.722;2022-10-31T05:17:45;10.70;;;6.93;;
54247;SDS011;40161;39.768;2.722;2022-10-31T05:20:12;10.77;;;5.90;;
54247;SDS011;40161;39.768;2.722;2022-10-31T05:22:46;10.82;;;6.53;;
54247;SDS011;40161;39.768;2.722;2022-10-31T05:25:13;11.98;;;6.20;;
54247;SDS011;40161;39.768;2.722;2022-10-31T05:27:40;9.73;;;6.15;;
54247;SDS011;40161;39.768;2.722;2022-10-31T05:30:07;13.25;;;7.28;;
54247;SDS011;40161;39.768;2.722;2022-10-31T05:32:41;9.27;;;5.63;;
54247;SDS011;40161;39.768;2.722;2022-10-31T05:35:08;11.27;;;6.90;;
54247;SDS011;40161;39.768;2.722;2022-10-31T05:37:36;12.55;;;6.40;;
54247;SDS011;40161;39.768;2.722;2022-10-31T05:40:02;9.80;;;5.97;;
54247;SDS011;40161;39.768;2.722;2022-10-31T05:42:29;10.48;;;5.97;;
54247;SDS011;40161;39.768;2.722;2022-10-31T05:44:55;11.68;;;6.93;;
54247;SDS011;40161;39.768;2.722;2022-10-31T05:47:20;11.93;;;6.18;;
54247;SDS011;40161;39.768;2.722;2022-10-31T05:49:45;10.18;;;6.22;;
54247;SDS011;40161;39.768;2.722;2022-10-31T05:52:11;12.63;;;6.63;;
54247;SDS011;40161;39.768;2.722;2022-10-31T05:54:36;10.95;;;7.10;;
54247;SDS011;40161;39.768;2.722;2022-10-31T05:57:02;12.98;;;6.32;;
54247;SDS011;40161;39.768;2.722;2022-10-31T05:59:27;11.30;;;6.10;;
54247;SDS011;40161;39.768;2.722;2022-10-31T06:01:53;13.10;;;6.57;;
54247;SDS011;40161;39.768;2.722;2022-10-31T06:04:18;13.82;;;6.80;;
54247;SDS011;40161;39.768;2.722;2022-10-31T06:06:44;10.63;;;6.43;;
54247;SDS011;40161;39.768;2.722;2022-10-31T06:09:09;13.13;;;6.40;;
54247;SDS011;40161;39.768;2.722;2022-10-31T06:11:35;12.00;;;6.60;;
54247;SDS011;40161;39.768;2.722;2022-10-31T06:14:00;10.73;;;6.40;;
54247;SDS011;40161;39.768;2.722;2022-10-31T06:16:26;10.40;;;6.28;;
54247;SDS011;40161;39.768;2.722;2022-10-31T06:18:51;11.73;;;5.78;;
54247;SDS011;40161;39.768;2.722;2022-10-31T06:21:17;13.82;;;7.10;;
54247;SDS011;40161;39.768;2.722;2022-10-31T06:23:42;15.40;;;6.80;;
54247;SDS011;40161;39.768;2.722;2022-10-31T06:26:08;13.27;;;6.40;;
54247;SDS011;40161;39.768;2.722;2022-10-31T06:28:33;14.88;;;6.50;;
54247;SDS011;40161;39.768;2.722;2022-10-31T06:30:59;15.20;;;11.10;;
54247;SDS011;40161;39.768;2.722;2022-10-31T06:33:24;14.30;;;8.80;;
54247;SDS011;40161;39.768;2.722;2022-10-31T06:35:50;10.75;;;7.20;;
54247;SDS011;40161;39.768;2.722;2022-10-31T06:38:15;13.10;;;6.28;;
54247;SDS011;40161;39.768;2.722;2022-10-31T06:40:41;14.77;;;7.75;;
54247;SDS011;40161;39.768;2.722;2022-10-31T06:43:06;14.68;;;7.57;;
54247;SDS011;40161;39.768;2.722;2022-10-31T06:45:32;15.60;;;7.75;;
54247;SDS011;40161;39.768;2.722;2022-10-31T06:47:57;13.02;;;8.52;;
54247;SDS011;40161;39.768;2.722;2022-10-31T06:50:23;12.57;;;7.30;;
54247;SDS011;40161;39.768;2.722;2022-10-31T06:52:52;15.20;;;7.53;;
54247;SDS011;40161;39.768;2.722;2022-10-31T06:55:18;13.80;;;8.00;;
54247;SDS011;40161;39.768;2.722;2022-10-31T06:57:57;11.82;;;6.93;;
54247;SDS011;40161;39.768;2.722;2022-10-31T07:00:24;14.82;;;7.63;;
54247;SDS011;40161;39.768;2.722;2022-10-31T07:02:58;10.25;;;6.82;;
54247;SDS011;40161;39.768;2.722;2022-10-31T07:05:29;14.48;;;6.70;;
54247;SDS011;40161;39.768;2.722;2022-10-31T07:07:56;15.57;;;8.00;;
54247;SDS011;40161;39.768;2.722;2022-10-31T07:10:23;13.60;;;7.53;;
54247;SDS011;40161;39.768;2.722;2022-10-31T07:12:54;11.13;;;7.30;;
54247;SDS011;40161;39.768;2.722;2022-10-31T07:15:28;17.35;;;7.55;;
54247;SDS011;40161;39.768;2.722;2022-10-31T07:17:59;15.05;;;7.93;;
54247;SDS011;40161;39.768;2.722;2022-10-31T07:20:26;11.02;;;7.80;;
54247;SDS011;40161;39.768;2.722;2022-10-31T07:22:52;13.85;;;8.38;;
54247;SDS011;40161;39.768;2.722;2022-10-31T07:25:17;14.13;;;9.07;;
54247;SDS011;40161;39.768;2.722;2022-10-31T07:27:43;21.92;;;15.05;;
54247;SDS011;40161;39.768;2.722;2022-10-31T07:30:09;78.20;;;46.55;;
54247;SDS011;40161;39.768;2.722;2022-10-31T07:33:09;61.92;;;39.78;;
54247;SDS011;40161;39.768;2.722;2022-10-31T07:35:29;56.35;;;36.13;;
54247;SDS011;40161;39.768;2.722;2022-10-31T07:37:54;54.50;;;32.35;;
54247;SDS011;40161;39.768;2.722;2022-10-31T07:40:20;42.63;;;25.92;;
54247;SDS011;40161;39.768;2.722;2022-10-31T07:42:48;53.25;;;31.02;;
54247;SDS011;40161;39.768;2.722;2022-10-31T07:45:16;61.30;;;33.97;;
54247;SDS011;40161;39.768;2.722;2022-10-31T07:47:49;61.08;;;34.95;;
54247;SDS011;40161;39.768;2.722;2022-10-31T07:50:17;48.60;;;28.70;;
54247;SDS011;40161;39.768;2.722;2022-10-31T07:53:00;51.65;;;27.33;;
54247;SDS011;40161;39.768;2.722;2022-10-31T07:55:33;45.30;;;27.90;;
54247;SDS011;40161;39.768;2.722;2022-10-31T07:58:00;45.83;;;27.08;;
54247;SDS011;40161;39.768;2.722;2022-10-31T08:00:27;53.95;;;29.70;;
54247;SDS011;40161;39.768;2.722;2022-10-31T08:02:59;50.92;;;28.80;;
54247;SDS011;40161;39.768;2.722;2022-10-31T08:05:26;53.15;;;31.42;;
54247;SDS011;40161;39.768;2.722;2022-10-31T08:07:52;55.03;;;30.98;;
54247;SDS011;40161;39.768;2.722;2022-10-31T08:10:17;63.70;;;35.42;;
54247;SDS011;40161;39.768;2.722;2022-10-31T08:12:43;63.17;;;34.50;;
54247;SDS011;40161;39.768;2.722;2022-10-31T08:15:09;57.53;;;32.50;;
54247;SDS011;40161;39.768;2.722;2022-10-31T08:17:35;56.78;;;29.80;;
54247;SDS011;40161;39.768;2.722;2022-10-31T08:20:01;52.22;;;29.58;;
54247;SDS011;40161;39.768;2.722;2022-10-31T08:22:27;59.35;;;32.80;;
54247;SDS011;40161;39.768;2.722;2022-10-31T08:24:53;59.42;;;33.72;;
54247;SDS011;40161;39.768;2.722;2022-10-31T08:27:18;49.58;;;30.60;;
54247;SDS011;40161;39.768;2.722;2022-10-31T08:29:44;50.67;;;29.98;;
54247;SDS011;40161;39.768;2.722;2022-10-31T08:32:09;51.20;;;29.75;;
54247;SDS011;40161;39.768;2.722;2022-10-31T08:34:34;53.55;;;28.30;;
54247;SDS011;40161;39.768;2.722;2022-10-31T08:37:00;42.08;;;28.67;;
54247;SDS011;40161;39.768;2.722;2022-10-31T08:39:25;47.78;;;28.33;;
54247;SDS011;40161;39.768;2.722;2022-10-31T08:41:51;47.13;;;25.35;;
54247;SDS011;40161;39.768;2.722;2022-10-31T08:44:16;40.65;;;23.42;;
54247;SDS011;40161;39.768;2.722;2022-10-31T08:46:42;38.17;;;21.13;;
54247;SDS011;40161;39.768;2.722;2022-10-31T08:49:07;35.03;;;21.10;;
54247;SDS011;40161;39.768;2.722;2022-10-31T08:51:33;35.38;;;22.10;;
54247;SDS011;40161;39.768;2.722;2022-10-31T08:53:58;36.30;;;22.17;;
54247;SDS011;40161;39.768;2.722;2022-10-31T08:56:24;34.53;;;19.52;;
54247;SDS011;40161;39.768;2.722;2022-10-31T08:58:49;31.23;;;19.77;;
54247;SDS011;40161;39.768;2.722;2022-10-31T09:01:16;27.83;;;17.00;;
54247;SDS011;40161;39.768;2.722;2022-10-31T09:03:41;36.13;;;20.13;;
54247;SDS011;40161;39.768;2.722;2022-10-31T09:06:07;30.65;;;17.50;;
54247;SDS011;40161;39.768;2.722;2022-10-31T09:08:34;19.98;;;13.85;;
54247;SDS011;40161;39.768;2.722;2022-10-31T09:11:00;22.55;;;12.68;;
54247;SDS011;40161;39.768;2.722;2022-10-31T09:13:26;18.88;;;11.80;;
54247;SDS011;40161;39.768;2.722;2022-10-31T09:15:52;19.48;;;11.20;;
54247;SDS011;40161;39.768;2.722;2022-10-31T09:18:19;17.95;;;9.43;;
54247;SDS011;40161;39.768;2.722;2022-10-31T09:20:47;14.15;;;8.23;;
54247;SDS011;40161;39.768;2.722;2022-10-31T09:23:15;12.48;;;6.40;;
54247;SDS011;40161;39.768;2.722;2022-10-31T09:25:42;14.48;;;7.45;;
54247;SDS011;40161;39.768;2.722;2022-10-31T09:28:10;15.40;;;8.32;;
54247;SDS011;40161;39.768;2.722;2022-10-31T09:30:38;15.20;;;7.10;;
54247;SDS011;40161;39.768;2.722;2022-10-31T09:33:11;15.02;;;7.10;;
54247;SDS011;40161;39.768;2.722;2022-10-31T09:35:37;13.70;;;7.45;;
54247;SDS011;40161;39.768;2.722;2022-10-31T09:38:10;12.93;;;6.95;;
54247;SDS011;40161;39.768;2.722;2022-10-31T09:46:16;15.35;;;8.43;;
54247;SDS011;40161;39.768;2.722;2022-10-31T09:51:58;16.75;;;6.63;;
54247;SDS011;40161;39.768;2.722;2022-10-31T09:57:12;12.13;;;5.57;;
54247;SDS011;40161;39.768;2.722;2022-10-31T09:59:40;15.50;;;6.15;;
54247;SDS011;40161;39.768;2.722;2022-10-31T10:02:19;15.43;;;6.25;;
54247;SDS011;40161;39.768;2.722;2022-10-31T10:10:33;15.05;;;7.93;;
54247;SDS011;40161;39.768;2.722;2022-10-31T10:18:43;14.43;;;6.05;;
54247;SDS011;40161;39.768;2.722;2022-10-31T10:26:38;11.50;;;6.20;;
54247;SDS011;40161;39.768;2.722;2022-10-31T10:32:09;11.57;;;6.10;;
54247;SDS011;40161;39.768;2.722;2022-10-31T10:34:41;12.73;;;5.65;;
54247;SDS011;40161;39.768;2.722;2022-10-31T10:39:48;15.05;;;5.82;;
54247;SDS011;40161;39.768;2.722;2022-10-31T10:42:19;12.80;;;6.70;;
54247;SDS011;40161;39.768;2.722;2022-10-31T10:45:13;11.90;;;5.53;;
54247;SDS011;40161;39.768;2.722;2022-10-31T10:50:56;13.55;;;5.90;;
54247;SDS011;40161;39.768;2.722;2022-10-31T10:59:14;15.73;;;6.93;;
54247;SDS011;40161;39.768;2.722;2022-10-31T11:01:43;10.68;;;6.03;;
54247;SDS011;40161;39.768;2.722;2022-10-31T11:04:29;14.52;;;6.35;;
54247;SDS011;40161;39.768;2.722;2022-10-31T11:07:01;11.80;;;6.00;;
54247;SDS011;40161;39.768;2.722;2022-10-31T11:09:26;12.20;;;6.47;;
54247;SDS011;40161;39.768;2.722;2022-10-31T11:11:52;13.18;;;6.80;;
54247;SDS011;40161;39.768;2.722;2022-10-31T11:14:19;13.65;;;6.00;;
54247;SDS011;40161;39.768;2.722;2022-10-31T11:16:46;13.35;;;5.90;;
54247;SDS011;40161;39.768;2.722;2022-10-31T11:21:48;18.13;;;5.88;;
54247;SDS011;40161;39.768;2.722;2022-10-31T11:26:48;13.63;;;5.95;;
54247;SDS011;40161;39.768;2.722;2022-10-31T11:29:16;15.82;;;5.95;;
54247;SDS011;40161;39.768;2.722;2022-10-31T11:31:45;14.63;;;5.80;;
54247;SDS011;40161;39.768;2.722;2022-10-31T11:36:50;14.98;;;5.35;;
54247;SDS011;40161;39.768;2.722;2022-10-31T11:39:17;11.32;;;5.43;;
54247;SDS011;40161;39.768;2.722;2022-10-31T11:41:47;13.95;;;5.38;;
54247;SDS011;40161;39.768;2.722;2022-10-31T11:46:51;12.23;;;5.40;;
54247;SDS011;40161;39.768;2.722;2022-10-31T11:49:34;14.27;;;4.95;;
54247;SDS011;40161;39.768;2.722;2022-10-31T11:52:12;16.42;;;5.32;;
54247;SDS011;40161;39.768;2.722;2022-10-31T11:54:58;10.88;;;5.28;;
54247;SDS011;40161;39.768;2.722;2022-10-31T11:59:57;11.52;;;5.22;;
54247;SDS011;40161;39.768;2.722;2022-10-31T12:02:26;13.48;;;5.15;;
54247;SDS011;40161;39.768;2.722;2022-10-31T12:04:55;13.25;;;5.32;;
54247;SDS011;40161;39.768;2.722;2022-10-31T12:07:23;13.05;;;5.30;;
54247;SDS011;40161;39.768;2.722;2022-10-31T12:09:49;13.05;;;5.38;;
54247;SDS011;40161;39.768;2.722;2022-10-31T12:17:34;12.60;;;5.22;;
54247;SDS011;40161;39.768;2.722;2022-10-31T12:26:06;10.20;;;5.07;;
54247;SDS011;40161;39.768;2.722;2022-10-31T12:28:43;15.35;;;5.07;;
54247;SDS011;40161;39.768;2.722;2022-10-31T12:36:59;11.45;;;6.38;;
54247;SDS011;40161;39.768;2.722;2022-10-31T12:51:17;14.73;;;5.68;;
54247;SDS011;40161;39.768;2.722;2022-10-31T12:58:59;12.45;;;5.22;;
54247;SDS011;40161;39.768;2.722;2022-10-31T13:01:38;15.18;;;5.85;;
54247;SDS011;40161;39.768;2.722;2022-10-31T13:07:27;13.05;;;5.78;;
54247;SDS011;40161;39.768;2.722;2022-10-31T13:12:42;14.75;;;6.28;;
54247;SDS011;40161;39.768;2.722;2022-10-31T13:15:16;12.95;;;5.90;;
54247;SDS011;40161;39.768;2.722;2022-10-31T13:17:43;11.10;;;5.90;;
54247;SDS011;40161;39.768;2.722;2022-10-31T13:20:14;13.00;;;5.25;;
54247;SDS011;40161;39.768;2.722;2022-10-31T13:22:45;12.15;;;5.55;;
54247;SDS011;40161;39.768;2.722;2022-10-31T13:25:20;11.27;;;5.50;;
54247;SDS011;40161;39.768;2.722;2022-10-31T13:28:08;14.13;;;5.80;;
54247;SDS011;40161;39.768;2.722;2022-10-31T13:30:55;11.77;;;5.43;;
54247;SDS011;40161;39.768;2.722;2022-10-31T13:33:25;17.48;;;6.03;;
54247;SDS011;40161;39.768;2.722;2022-10-31T13:36:03;10.35;;;6.07;;
54247;SDS011;40161;39.768;2.722;2022-10-31T13:44:10;9.35;;;5.95;;
54247;SDS011;40161;39.768;2.722;2022-10-31T13:46:41;10.15;;;6.53;;
54247;SDS011;40161;39.768;2.722;2022-10-31T13:51:50;17.20;;;6.90;;
54247;SDS011;40161;39.768;2.722;2022-10-31T13:54:33;13.65;;;7.70;;
54247;SDS011;40161;39.768;2.722;2022-10-31T13:57:00;13.43;;;7.97;;
54247;SDS011;40161;39.768;2.722;2022-10-31T13:59:27;14.23;;;8.20;;
54247;SDS011;40161;39.768;2.722;2022-10-31T14:02:00;16.23;;;8.23;;
54247;SDS011;40161;39.768;2.722;2022-10-31T14:07:18;15.50;;;8.27;;
54247;SDS011;40161;39.768;2.722;2022-10-31T14:09:57;16.77;;;8.38;;
54247;SDS011;40161;39.768;2.722;2022-10-31T14:15:18;14.90;;;8.48;;
54247;SDS011;40161;39.768;2.722;2022-10-31T14:17:56;13.38;;;8.05;;
54247;SDS011;40161;39.768;2.722;2022-10-31T14:22:50;13.93;;;8.15;;
54247;SDS011;40161;39.768;2.722;2022-10-31T14:27:50;19.88;;;8.52;;
54247;SDS011;40161;39.768;2.722;2022-10-31T14:30:19;12.50;;;8.15;;
54247;SDS011;40161;39.768;2.722;2022-10-31T14:32:51;11.15;;;8.50;;
54247;SDS011;40161;39.768;2.722;2022-10-31T14:35:21;12.63;;;8.13;;
54247;SDS011;40161;39.768;2.722;2022-10-31T14:38:05;14.45;;;8.13;;
54247;SDS011;40161;39.768;2.722;2022-10-31T14:49:17;18.60;;;9.35;;
54247;SDS011;40161;39.768;2.722;2022-10-31T14:52:05;15.75;;;8.23;;
54247;SDS011;40161;39.768;2.722;2022-10-31T14:54:40;12.48;;;8.52;;
54247;SDS011;40161;39.768;2.722;2022-10-31T14:57:16;17.05;;;8.15;;
54247;SDS011;40161;39.768;2.722;2022-10-31T14:59:50;13.43;;;8.20;;
54247;SDS011;40161;39.768;2.722;2022-10-31T15:02:34;12.77;;;8.05;;
54247;SDS011;40161;39.768;2.722;2022-10-31T15:05:08;13.70;;;7.95;;
54247;SDS011;40161;39.768;2.722;2022-10-31T15:07:35;12.88;;;7.85;;
54247;SDS011;40161;39.768;2.722;2022-10-31T15:10:06;14.27;;;7.72;;
54247;SDS011;40161;39.768;2.722;2022-10-31T15:12:44;36.75;;;22.67;;
54247;SDS011;40161;39.768;2.722;2022-10-31T15:17:48;42.28;;;22.52;;
54247;SDS011;40161;39.768;2.722;2022-10-31T15:20:22;63.53;;;32.13;;
54247;SDS011;40161;39.768;2.722;2022-10-31T15:22:51;65.43;;;35.25;;
54247;SDS011;40161;39.768;2.722;2022-10-31T15:25:20;65.53;;;35.58;;
54247;SDS011;40161;39.768;2.722;2022-10-31T15:27:48;35.95;;;22.83;;
54247;SDS011;40161;39.768;2.722;2022-10-31T15:30:21;33.63;;;20.33;;
54247;SDS011;40161;39.768;2.722;2022-10-31T15:32:49;35.08;;;19.17;;
54247;SDS011;40161;39.768;2.722;2022-10-31T15:35:22;19.00;;;12.32;;
54247;SDS011;40161;39.768;2.722;2022-10-31T15:37:52;16.58;;;9.45;;
54247;SDS011;40161;39.768;2.722;2022-10-31T15:40:19;16.92;;;8.48;;
54247;SDS011;40161;39.768;2.722;2022-10-31T15:42:51;16.60;;;7.88;;
54247;SDS011;40161;39.768;2.722;2022-10-31T15:45:22;16.02;;;7.72;;
54247;SDS011;40161;39.768;2.722;2022-10-31T15:48:32;13.60;;;8.02;;
54247;SDS011;40161;39.768;2.722;2022-10-31T15:50:50;13.63;;;7.78;;
54247;SDS011;40161;39.768;2.722;2022-10-31T15:54:05;18.15;;;7.55;;
54247;SDS011;40161;39.768;2.722;2022-10-31T15:56:19;12.52;;;6.90;;
54247;SDS011;40161;39.768;2.722;2022-10-31T15:58:48;11.82;;;6.28;;
54247;SDS011;40161;39.768;2.722;2022-10-31T16:01:23;15.00;;;7.43;;
54247;SDS011;40161;39.768;2.722;2022-10-31T16:04:05;10.93;;;6.25;;
54247;SDS011;40161;39.768;2.722;2022-10-31T16:07:01;13.18;;;7.32;;
54247;SDS011;40161;39.768;2.722;2022-10-31T16:09:48;21.60;;;11.98;;
54247;SDS011;40161;39.768;2.722;2022-10-31T16:12:20;22.20;;;13.48;;
54247;SDS011;40161;39.768;2.722;2022-10-31T16:14:53;19.13;;;10.35;;
54247;SDS011;40161;39.768;2.722;2022-10-31T16:17:21;17.65;;;9.15;;
54247;SDS011;40161;39.768;2.722;2022-10-31T16:22:46;14.68;;;8.45;;
54247;SDS011;40161;39.768;2.722;2022-10-31T16:25:13;30.88;;;19.52;;
54247;SDS011;40161;39.768;2.722;2022-10-31T16:27:48;31.10;;;19.58;;
54247;SDS011;40161;39.768;2.722;2022-10-31T16:30:30;20.95;;;11.50;;
54247;SDS011;40161;39.768;2.722;2022-10-31T16:32:59;16.17;;;10.32;;
54247;SDS011;40161;39.768;2.722;2022-10-31T16:35:27;14.88;;;9.32;;
54247;SDS011;40161;39.768;2.722;2022-10-31T16:37:59;18.13;;;12.32;;
54247;SDS011;40161;39.768;2.722;2022-10-31T16:40:25;15.90;;;10.00;;
54247;SDS011;40161;39.768;2.722;2022-10-31T16:42:51;14.88;;;9.85;;
54247;SDS011;40161;39.768;2.722;2022-10-31T16:45:18;12.93;;;8.93;;
54247;SDS011;40161;39.768;2.722;2022-10-31T16:47:46;17.45;;;9.25;;
54247;SDS011;40161;39.768;2.722;2022-10-31T16:50:24;13.32;;;9.18;;
54247;SDS011;40161;39.768;2.722;2022-10-31T16:52:50;16.23;;;9.13;;
54247;SDS011;40161;39.768;2.722;2022-10-31T16:55:17;16.63;;;10.50;;
54247;SDS011;40161;39.768;2.722;2022-10-31T16:57:46;13.98;;;9.40;;
54247;SDS011;40161;39.768;2.722;2022-10-31T17:00:18;13.57;;;9.73;;
54247;SDS011;40161;39.768;2.722;2022-10-31T17:02:49;15.65;;;9.40;;
54247;SDS011;40161;39.768;2.722;2022-10-31T17:05:17;14.40;;;9.65;;
54247;SDS011;40161;39.768;2.722;2022-10-31T17:07:45;14.60;;;9.15;;
54247;SDS011;40161;39.768;2.722;2022-10-31T17:10:12;13.48;;;9.82;;
54247;SDS011;40161;39.768;2.722;2022-10-31T17:12:39;15.63;;;8.38;;
54247;SDS011;40161;39.768;2.722;2022-10-31T17:15:10;12.18;;;8.30;;
54247;SDS011;40161;39.768;2.722;2022-10-31T17:17:41;13.20;;;8.70;;
54247;SDS011;40161;39.768;2.722;2022-10-31T17:20:49;18.55;;;10.23;;
54247;SDS011;40161;39.768;2.722;2022-10-31T17:22:57;14.13;;;8.68;;
54247;SDS011;40161;39.768;2.722;2022-10-31T17:25:24;11.15;;;8.32;;
54247;SDS011;40161;39.768;2.722;2022-10-31T17:27:51;13.82;;;9.52;;
54247;SDS011;40161;39.768;2.722;2022-10-31T17:30:18;13.10;;;8.93;;